Time;durP1;ratioP1;P1;durP2;ratioP2;P2;SDS_P1;SDS_P2;PMS_P1;PMS_P2;Temp;Humidity;BMP_temperature;BMP_pressure;BME280_temperature;BME280_humidity;BME280_pressure;Samples;Min_cycle;Max_cycle;Signal;HPM_P1;HPM_P2
2022/08/10 00:03:06;;;;;;;2.88;1.80;;;;;;;21.04;42.21;100961.72;20887937;28;20056;-69
2022/08/10 00:13:07;;;;;;;4.60;2.00;;;;;;;20.87;42.96;100959.03;20887948;28;20529;-70
2022/08/10 00:23:10;;;;;;;5.13;2.13;;;;;;;20.51;44.00;100965.22;20887829;28;20041;-69
2022/08/10 00:33:11;;;;;;;3.60;1.90;;;;;;;20.33;44.21;100952.75;20886855;28;20482;-69
2022/08/10 00:43:12;;;;;;;3.78;2.08;;;;;;;20.31;44.44;100951.94;20890335;28;20232;-69
2022/08/10 00:53:14;;;;;;;4.65;1.98;;;;;;;20.17;44.99;100958.81;20901715;28;20047;-69
2022/08/10 01:03:15;;;;;;;5.18;2.10;;;;;;;20.06;45.38;100953.09;20900593;28;20044;-69
2022/08/10 01:13:36;;;;;;;3.90;1.80;;;;;;;19.91;45.53;100959.97;20981574;28;20048;-68
2022/08/10 01:23:38;;;;;;;4.55;2.38;;;;;;;19.91;45.93;100956.47;20982522;28;20049;-69
2022/08/10 01:33:39;;;;;;;3.35;1.85;;;;;;;19.85;46.14;100957.59;20996893;22;20404;-71
2022/08/10 01:44:00;;;;;;;7.57;2.40;;;;;;;19.59;47.34;100955.22;20801656;28;20513;-72
2022/08/10 01:54:03;;;;;;;7.70;2.28;;;;;;;19.43;47.96;100960.34;20733807;28;20072;-70
2022/08/10 02:04:12;;;;;;;5.30;2.00;;;;;;;18.99;50.33;100973.72;20732674;28;20050;-70
2022/08/10 02:14:13;;;;;;;5.07;2.30;;;;;;;18.66;52.04;100978.56;20732888;28;20115;-70
2022/08/10 02:24:15;;;;;;;3.92;2.35;;;;;;;18.46;53.00;100979.38;20730953;28;20046;-70
2022/08/10 02:34:16;;;;;;;7.47;2.70;;;;;;;18.20;55.12;100989.19;20729558;28;21123;-70
2022/08/10 02:44:19;;;;;;;5.47;2.15;;;;;;;18.04;55.15;100990.66;20729694;28;20050;-70
2022/08/10 02:54:41;;;;;;;6.72;2.45;;;;;;;17.82;56.05;100995.91;20729285;28;20573;-71
2022/08/10 03:04:43;;;;;;;4.93;2.15;;;;;;;17.73;56.18;100995.34;20732803;28;20058;-70
2022/08/10 03:14:58;;;;;;;6.17;2.43;;;;;;;17.65;56.17;100993.81;20728169;28;20053;-71
2022/08/10 03:25:00;;;;;;;5.38;2.35;;;;;;;17.62;56.12;100995.69;20727489;28;20049;-70
2022/08/10 03:35:01;;;;;;;4.72;2.53;;;;;;;17.51;57.17;100998.72;20725843;28;20104;-70
2022/08/10 03:45:03;;;;;;;9.85;2.53;;;;;;;17.12;60.06;101006.25;20726011;28;20487;-70
2022/08/10 03:55:04;;;;;;;5.15;2.40;;;;;;;17.06;59.61;101009.97;20726053;28;20073;-70
2022/08/10 04:05:05;;;;;;;5.20;2.63;;;;;;;16.99;59.83;101032.22;20725062;28;20038;-68
2022/08/10 04:15:07;;;;;;;10.23;2.65;;;;;;;16.97;60.22;101043.78;20724343;28;20418;-69
2022/08/10 04:25:08;;;;;;;6.05;2.60;;;;;;;17.08;59.68;101045.16;20738234;28;20061;-69
2022/08/10 04:35:09;;;;;;;6.05;2.70;;;;;;;17.22;59.17;101044.72;20738480;28;20038;-69
2022/08/10 04:45:11;;;;;;;6.55;2.88;;;;;;;17.32;58.86;101043.50;20738287;28;20054;-70
2022/08/10 04:55:12;;;;;;;5.90;2.90;;;;;;;17.66;57.38;101040.56;20737527;28;20049;-71
2022/08/10 05:05:13;;;;;;;7.10;2.92;;;;;;;17.59;57.87;101044.34;20736667;28;20446;-71
2022/08/10 05:15:17;;;;;;;6.85;3.15;;;;;;;17.85;57.34;101047.91;20733823;28;20050;-70
2022/08/10 05:25:18;;;;;;;9.27;2.78;;;;;;;18.04;57.94;101043.66;20736227;28;20070;-72
2022/08/10 05:35:20;;;;;;;7.00;2.47;;;;;;;18.31;56.27;101046.25;20737932;28;20054;-71
2022/08/10 05:45:21;;;;;;;6.47;2.95;;;;;;;18.56;54.55;101057.63;20732460;28;20050;-71
2022/08/10 05:55:22;;;;;;;6.18;2.95;;;;;;;18.75;54.55;101068.44;20732526;28;20491;-70
2022/08/10 06:05:24;;;;;;;5.80;3.15;;;;;;;19.05;53.33;101071.66;20731631;28;20046;-71
2022/08/10 06:15:25;;;;;;;7.82;2.70;;;;;;;19.26;53.25;101066.41;20731547;28;20045;-71
2022/08/10 06:25:46;;;;;;;5.53;2.70;;;;;;;19.56;52.64;101075.75;20731256;28;20688;-70
2022/08/10 06:36:08;;;;;;;8.60;2.75;;;;;;;19.92;51.72;101068.00;20726565;28;20100;-70
2022/08/10 06:46:09;;;;;;;5.28;2.38;;;;;;;20.22;51.69;101068.47;20728048;28;20050;-71
2022/08/10 06:56:11;;;;;;;6.28;2.75;;;;;;;20.51;51.12;101063.66;20728193;28;20042;-70
2022/08/10 07:06:12;;;;;;;8.40;2.15;;;;;;;20.85;49.12;101062.06;20725181;28;20050;-71
2022/08/10 07:16:14;;;;;;;9.48;2.60;;;;;;;21.10;49.20;101072.38;20724088;28;20042;-72
2022/08/10 07:26:15;;;;;;;5.00;2.25;;;;;;;21.61;46.83;101055.63;20724838;28;20049;-71
2022/08/10 07:36:17;;;;;;;11.00;2.08;;;;;;;21.89;46.20;101049.69;20724340;28;20064;-69
2022/08/10 07:46:18;;;;;;;7.68;2.67;;;;;;;22.37;45.76;101049.88;20724997;28;20395;-67
2022/08/10 07:56:19;;;;;;;6.95;2.00;;;;;;;22.82;44.46;101046.47;20716248;28;20391;-67
2022/08/10 08:06:41;;;;;;;6.47;1.80;;;;;;;23.28;42.52;101050.06;20725177;28;20124;-67
2022/08/10 08:16:42;;;;;;;6.95;1.75;;;;;;;23.59;41.98;101044.72;20724639;28;20049;-67
2022/08/10 08:26:43;;;;;;;4.30;1.73;;;;;;;24.05;39.07;101035.66;20724457;28;20054;-67
2022/08/10 08:36:52;;;;;;;4.32;1.83;;;;;;;24.45;37.57;101038.53;20723298;28;20410;-68
2022/08/10 08:46:59;;;;;;;7.65;1.45;;;;;;;24.92;35.95;101039.97;20725230;28;20046;-67
2022/08/10 08:57:01;;;;;;;6.55;1.65;;;;;;;25.31;35.80;101035.63;20723279;28;20050;-68
2022/08/10 09:07:06;;;;;;;12.88;1.80;;;;;;;25.49;34.96;101028.19;20729674;28;20053;-68
2022/08/10 09:17:27;;;;;;;3.65;1.45;;;;;;;25.94;33.66;101023.28;20738167;28;20297;-68
2022/08/10 09:27:29;;;;;;;6.70;1.75;;;;;;;26.25;32.15;101006.72;20736510;28;20064;-69
2022/08/10 09:37:35;;;;;;;6.10;1.55;;;;;;;26.56;31.73;101009.91;20733960;28;20050;-69
2022/08/10 09:47:56;;;;;;;7.28;1.85;;;;;;;26.89;31.13;101008.41;20735351;28;20479;-69
2022/08/10 09:58:03;;;;;;;4.78;1.50;;;;;;;27.28;30.98;100997.34;20733989;28;20088;-69
2022/08/10 10:08:04;;;;;;;7.55;1.65;;;;;;;27.46;29.47;100981.66;20731931;28;20103;-69
2022/08/10 10:18:05;;;;;;;5.43;1.80;;;;;;;27.55;27.63;100978.25;20729920;28;20057;-69
2022/08/10 10:28:07;;;;;;;5.72;1.70;;;;;;;27.89;26.42;100964.00;20730176;28;20056;-69
2022/08/10 10:38:08;;;;;;;4.70;1.40;;;;;;;28.05;27.33;100954.56;20728595;28;20557;-68
2022/08/10 10:48:09;;;;;;;8.10;1.77;;;;;;;28.23;27.05;100952.25;20729681;28;20064;-70
2022/08/10 10:58:17;;;;;;;7.15;1.60;;;;;;;28.11;26.47;100939.75;20728557;28;20494;-73
2022/08/10 11:08:22;;;;;;;7.57;1.70;;;;;;;28.42;26.03;100918.44;20727919;28;20045;-71
2022/08/10 11:18:32;;;;;;;8.15;1.50;;;;;;;28.40;25.80;100915.00;20723990;28;20045;-69
2022/08/10 11:28:34;;;;;;;8.38;1.60;;;;;;;28.54;25.55;100917.41;20726297;28;20038;-70
2022/08/10 11:38:37;;;;;;;5.88;1.65;;;;;;;28.83;24.26;100917.69;20725186;28;20061;-71
2022/08/10 11:48:58;;;;;;;5.07;1.75;;;;;;;28.91;24.96;100896.31;20724329;28;20368;-74
2022/08/10 12:09:24;;;;;;;3.75;1.30;;;;;;;29.14;22.77;100883.63;20722619;28;20049;-77
2022/08/10 12:19:45;;;;;;;4.93;1.38;;;;;;;29.08;22.52;100879.59;20723290;28;21100;-77
2022/08/10 12:30:03;;;;;;;2.75;1.40;;;;;;;29.09;22.73;100869.66;20721996;28;20054;-71
2022/08/10 12:40:04;;;;;;;4.75;1.60;;;;;;;29.25;21.99;100869.19;20727325;28;20049;-75
2022/08/10 12:50:26;;;;;;;4.85;1.67;;;;;;;28.91;23.53;100852.34;20740293;28;20454;-72
2022/08/10 13:00:34;;;;;;;7.32;1.95;;;;;;;29.20;21.74;100834.53;20737005;28;20048;-71
2022/08/10 13:10:35;;;;;;;4.43;1.60;;;;;;;29.55;21.01;100822.50;20736338;28;20655;-74
2022/08/10 13:20:36;;;;;;;3.53;1.50;;;;;;;29.38;21.85;100822.13;20735818;28;20111;-72
2022/08/10 13:30:37;;;;;;;3.10;1.42;;;;;;;29.58;20.88;100798.81;20734837;28;20053;-70
2022/08/10 13:40:39;;;;;;;3.80;1.70;;;;;;;29.43;20.87;100797.44;20734829;28;20192;-70
2022/08/10 13:50:40;;;;;;;8.80;2.40;;;;;;;29.61;21.73;100781.50;20733021;28;20058;-70
2022/08/10 14:00:42;;;;;;;6.10;1.48;;;;;;;29.60;20.17;100777.06;20732750;28;20050;-69
2022/08/10 14:10:43;;;;;;;9.18;1.98;;;;;;;29.51;21.02;100775.16;20731538;28;20140;-69
2022/08/10 14:21:04;;;;;;;3.47;1.70;;;;;;;29.68;21.53;100761.03;20732547;28;20718;-69
2022/08/10 14:31:06;;;;;;;5.77;1.83;;;;;;;29.81;20.61;100756.25;20730751;28;20049;-70
2022/08/10 14:41:08;;;;;;;9.25;1.58;;;;;;;30.12;20.50;100745.31;20729627;28;20589;-71
2022/08/10 14:51:09;;;;;;;6.15;1.40;;;;;;;30.06;19.83;100732.41;20730582;28;20137;-69
2022/08/10 15:01:12;;;;;;;3.72;1.38;;;;;;;29.63;22.47;100717.44;20727681;28;20049;-70
2022/08/10 15:11:13;;;;;;;4.07;1.58;;;;;;;29.51;21.14;100730.13;20729349;28;20050;-70
2022/08/10 15:21:35;;;;;;;4.45;1.45;;;;;;;29.60;21.24;100713.16;20728288;28;20492;-70
2022/08/10 15:42:03;;;;;;;6.63;1.77;;;;;;;29.65;21.49;100705.50;20726240;28;20042;-70
2022/08/10 15:52:05;;;;;;;6.20;1.58;;;;;;;29.71;21.10;100698.69;20725153;28;20045;-69
2022/08/10 16:02:06;;;;;;;4.18;1.60;;;;;;;29.53;20.58;100685.00;20721271;28;20360;-70
2022/08/10 16:12:17;;;;;;;4.72;2.53;;;;;;;29.11;22.03;100682.47;20721071;28;20544;-69
2022/08/10 16:22:30;;;;;;;10.52;4.07;;;;;;;29.31;22.16;100674.44;20738496;28;20096;-69
2022/08/10 16:32:37;;;;;;;10.18;2.72;;;;;;;29.31;22.18;100674.44;20738338;28;20081;-69
2022/08/10 16:42:38;;;;;;;4.35;1.90;;;;;;;29.40;22.27;100665.50;20735282;28;20053;-68
2022/08/10 16:52:45;;;;;;;5.57;1.60;;;;;;;29.52;21.29;100660.88;20732966;28;20058;-69
2022/08/10 17:02:46;;;;;;;5.03;1.77;;;;;;;29.55;21.77;100649.81;20733548;28;20969;-71
2022/08/10 17:12:47;;;;;;;4.70;1.40;;;;;;;29.65;21.50;100645.25;20732630;28;20409;-70
2022/08/10 17:22:49;;;;;;;6.90;1.58;;;;;;;29.48;21.02;100644.09;20730845;28;20057;-70
2022/08/10 17:32:54;;;;;;;4.05;1.50;;;;;;;29.35;21.54;100638.97;20729715;28;20085;-70
2022/08/10 17:42:56;;;;;;;8.20;1.40;;;;;;;29.25;21.90;100648.88;20730767;28;20421;-72
2022/08/10 17:52:57;;;;;;;4.43;1.50;;;;;;;28.92;21.84;100651.88;20729337;28;20049;-71
2022/08/10 18:02:58;;;;;;;5.03;1.60;;;;;;;28.52;22.80;100660.78;20727876;28;20092;-70
2022/08/10 18:13:00;;;;;;;6.00;1.60;;;;;;;27.99;23.30;100660.81;20728585;28;20050;-70
2022/08/10 18:23:01;;;;;;;3.78;1.83;;;;;;;27.56;24.70;100654.47;20727644;28;20467;-70
2022/08/10 18:33:03;;;;;;;4.93;1.83;;;;;;;27.12;25.84;100668.88;20726033;28;20483;-68
2022/08/10 18:43:04;;;;;;;6.82;2.00;;;;;;;26.83;25.99;100668.47;20724069;28;20049;-68
2022/08/10 18:53:25;;;;;;;5.97;2.17;;;;;;;26.47;27.00;100673.06;20723761;28;20127;-68
2022/08/10 19:03:35;;;;;;;5.32;2.15;;;;;;;26.17;27.33;100687.00;21064602;27;20377;-67
2022/08/10 19:13:36;;;;;;;3.83;1.90;;;;;;;25.90;27.79;100687.28;20956381;28;20048;-68
2022/08/10 19:23:38;;;;;;;3.92;1.80;;;;;;;25.58;28.71;100690.50;20955685;28;20037;-68
2022/08/10 19:33:41;;;;;;;5.72;2.10;;;;;;;25.23;29.74;100701.09;20954307;28;20037;-68
2022/08/10 19:43:42;;;;;;;8.07;2.40;;;;;;;24.56;31.19;100716.56;20982375;22;20055;-70
2022/08/10 19:54:02;;;;;;;6.85;2.28;;;;;;;24.32;31.85;100722.59;20950301;28;20680;-68
2022/08/10 20:04:03;;;;;;;4.13;1.98;;;;;;;24.11;32.52;100720.53;20950623;28;20091;-69
2022/08/10 20:14:05;;;;;;;6.55;2.50;;;;;;;23.88;32.88;100722.91;20902440;28;20049;-68
2022/08/10 20:24:21;;;;;;;7.70;2.28;;;;;;;23.78;33.40;100729.81;20896552;28;20478;-69
2022/08/10 20:34:23;;;;;;;6.22;2.20;;;;;;;23.47;34.98;100722.88;20896137;28;20037;-68
2022/08/10 20:44:24;;;;;;;4.13;2.13;;;;;;;23.14;35.82;100724.09;20895558;28;20053;-68
2022/08/10 20:54:25;;;;;;;6.60;2.17;;;;;;;23.07;35.76;100727.25;20894974;28;20057;-66
2022/08/10 21:04:27;;;;;;;12.40;2.95;;;;;;;22.98;35.70;100724.19;20894334;28;20047;-67
2022/08/10 21:14:28;;;;;;;10.75;2.53;;;;;;;22.56;37.56;100722.28;20894391;28;20052;-66
2022/08/10 21:24:29;;;;;;;4.57;2.08;;;;;;;22.20;38.06;100723.56;20892017;28;20045;-66
2022/08/10 23:08:01;;;;;;;4.13;2.00;;;;;;;20.72;41.89;100743.28;20888480;28;20049;-66
2022/08/10 23:28:23;;;;;;;4.95;2.13;;;;;;;20.47;43.00;100732.22;20887798;28;20095;-66
2022/08/10 23:38:45;;;;;;;5.68;2.20;;;;;;;20.29;43.42;100733.09;20887380;28;20044;-66
2022/08/10 23:48:57;;;;;;;3.72;2.10;;;;;;;19.88;45.93;100730.69;20901096;28;20106;-66
2022/08/10 23:58:58;;;;;;;4.97;2.35;;;;;;;19.55;46.53;100742.00;20902466;28;20098;-66
